Time;durP1;ratioP1;P1;durP2;ratioP2;P2;SDS_P1;SDS_P2;PMS_P1;PMS_P2;Temp;Humidity;BMP_temperature;BMP_pressure;BME280_temperature;BME280_humidity;BME280_pressure;Samples;Min_cycle;Max_cycle;Signal;HPM_P1;HPM_P2
2022/07/31 00:00:57;;;;;;;6.30;4.10;;;;;;;19.43;69.27;98247.09;108008;1274;95604;-68
2022/07/31 00:03:25;;;;;;;8.60;4.20;;;;;;;19.40;69.29;98254.40;107997;1274;109931;-68
2022/07/31 00:05:53;;;;;;;6.40;4.20;;;;;;;19.36;69.34;98248.36;108003;1274;96081;-68
2022/07/31 00:08:22;;;;;;;6.30;4.20;;;;;;;19.37;69.40;98249.05;107963;1274;107837;-68
2022/07/31 00:10:49;;;;;;;6.70;3.80;;;;;;;19.35;69.46;98246.73;107955;1274;95698;-67
2022/07/31 00:13:17;;;;;;;9.10;4.20;;;;;;;19.31;69.43;98244.30;107973;1274;95577;-68
2022/07/31 00:16:05;;;;;;;8.00;4.30;;;;;;;19.27;69.60;98242.20;108006;1274;111082;-69
2022/07/31 00:18:34;;;;;;;5.90;3.80;;;;;;;19.27;69.49;98243.18;107971;1274;95710;-69
2022/07/31 00:21:02;;;;;;;6.60;4.50;;;;;;;19.27;69.59;98242.37;107916;1274;108278;-68
2022/07/31 00:23:30;;;;;;;7.50;4.00;;;;;;;19.26;69.48;98246.63;107953;1274;95608;-68
2022/07/31 00:25:57;;;;;;;8.60;4.40;;;;;;;19.22;69.38;98247.65;107960;1274;95868;-68
2022/07/31 00:28:25;;;;;;;8.40;4.60;;;;;;;19.18;69.65;98250.06;107963;1274;111482;-68
2022/07/31 00:30:53;;;;;;;7.60;4.20;;;;;;;19.16;69.58;98250.41;107945;1274;95676;-68
2022/07/31 00:33:21;;;;;;;7.90;4.50;;;;;;;19.17;69.80;98257.30;107943;1274;107892;-68
2022/07/31 00:35:49;;;;;;;8.10;4.70;;;;;;;19.18;69.82;98259.73;107891;1274;95659;-68
2022/07/31 00:38:17;;;;;;;9.10;4.40;;;;;;;19.19;69.95;98259.28;107997;1274;95664;-68
2022/07/31 00:41:01;;;;;;;7.50;4.30;;;;;;;19.22;70.01;98258.41;107978;1274;111555;-69
2022/07/31 00:43:29;;;;;;;6.40;4.30;;;;;;;19.23;69.91;98255.64;107983;1274;95711;-67
2022/07/31 00:45:58;;;;;;;6.60;4.60;;;;;;;19.22;69.91;98254.30;107942;1274;108343;-68
2022/07/31 00:48:26;;;;;;;9.30;4.40;;;;;;;19.20;69.83;98251.95;107937;1274;95753;-67
2022/07/31 00:50:56;;;;;;;5.90;4.20;;;;;;;19.14;69.83;98249.30;107874;1274;95789;-67
2022/07/31 00:53:24;;;;;;;8.00;4.00;;;;;;;19.15;70.06;98254.59;107852;1274;111364;-68
2022/07/31 00:55:51;;;;;;;6.50;4.20;;;;;;;19.17;70.23;98246.02;107936;1274;95677;-68
2022/07/31 00:58:19;;;;;;;6.20;4.10;;;;;;;19.19;70.00;98247.77;107879;1274;107595;-67
2022/07/31 01:00:47;;;;;;;7.80;4.40;;;;;;;19.19;70.14;98243.48;107905;1274;95737;-68
2022/07/31 01:03:17;;;;;;;7.70;3.90;;;;;;;19.21;70.14;98243.92;107967;1274;95729;-67
2022/07/31 01:05:45;;;;;;;7.70;4.00;;;;;;;19.20;70.10;98243.16;107976;1272;111993;-68
2022/07/31 01:08:13;;;;;;;9.30;3.80;;;;;;;19.22;70.27;98245.34;107974;1274;96033;-67
2022/07/31 01:11:08;;;;;;;8.90;4.30;;;;;;;19.19;70.19;98238.80;107943;1274;107593;-67
2022/07/31 01:13:49;;;;;;;7.80;3.80;;;;;;;19.14;70.11;98235.12;107962;1274;95636;-67
2022/07/31 01:16:18;;;;;;;5.40;3.40;;;;;;;19.12;70.19;98235.55;107981;1274;95569;-67
2022/07/31 01:18:47;;;;;;;5.10;3.70;;;;;;;19.10;70.14;98237.77;107988;1274;111472;-67
2022/07/31 01:21:26;;;;;;;4.10;3.30;;;;;;;19.10;70.27;98233.65;107884;1276;95714;-68
2022/07/31 01:24:07;;;;;;;8.10;3.60;;;;;;;19.09;70.31;98231.58;107905;1274;107797;-67
2022/07/31 01:26:58;;;;;;;4.00;3.00;;;;;;;19.08;70.40;98231.95;107868;1274;97956;-68
2022/07/31 01:29:31;;;;;;;5.40;3.00;;;;;;;19.07;70.39;98229.27;107937;1274;95669;-67
2022/07/31 01:32:17;;;;;;;4.00;2.80;;;;;;;19.09;70.44;98229.63;107872;1276;111567;-67
2022/07/31 01:34:56;;;;;;;7.10;2.60;;;;;;;19.10;70.48;98226.79;107911;1276;95729;-68
2022/07/31 01:37:32;;;;;;;2.60;2.20;;;;;;;19.11;70.48;98225.55;107897;1274;107672;-67
2022/07/31 01:40:08;;;;;;;3.30;2.80;;;;;;;19.10;70.47;98227.69;107838;1274;96637;-68
2022/07/31 01:42:40;;;;;;;8.20;2.80;;;;;;;19.10;70.50;98233.55;107962;1274;95849;-67
2022/07/31 01:45:10;;;;;;;5.30;2.60;;;;;;;19.11;70.44;98230.27;107834;1274;111505;-68
2022/07/31 01:47:40;;;;;;;3.50;2.50;;;;;;;19.07;70.44;98235.23;107982;1274;95789;-67
2022/07/31 01:50:09;;;;;;;3.90;2.40;;;;;;;19.03;70.46;98225.98;107909;1274;106965;-67
2022/07/31 01:52:59;;;;;;;5.10;2.80;;;;;;;19.01;70.54;98225.17;107942;1274;95675;-68
2022/07/31 01:55:29;;;;;;;4.10;3.10;;;;;;;19.02;70.62;98230.45;107854;1274;95689;-68
2022/07/31 01:58:19;;;;;;;3.10;2.80;;;;;;;18.99;70.55;98223.69;107961;1274;111469;-68
2022/07/31 02:00:49;;;;;;;3.50;2.90;;;;;;;18.99;70.56;98230.24;107955;1272;95751;-69
2022/07/31 02:03:19;;;;;;;6.70;3.10;;;;;;;18.99;70.62;98233.14;107957;1274;107939;-69
2022/07/31 02:06:07;;;;;;;3.40;2.70;;;;;;;18.97;70.72;98233.33;107941;1272;95975;-68
2022/07/31 02:08:35;;;;;;;4.20;2.90;;;;;;;18.98;70.83;98231.55;107957;1274;95661;-68
2022/07/31 02:11:04;;;;;;;5.60;3.20;;;;;;;19.01;70.97;98228.39;107938;1274;111357;-68
2022/07/31 02:13:37;;;;;;;5.80;3.50;;;;;;;19.03;70.87;98225.41;107935;1274;95747;-68
2022/07/31 02:16:05;;;;;;;4.60;3.20;;;;;;;19.04;70.66;98227.79;107930;1274;107484;-68
2022/07/31 02:18:34;;;;;;;5.30;3.00;;;;;;;19.02;70.74;98227.42;107912;1274;95684;-68
2022/07/31 02:21:02;;;;;;;7.00;3.60;;;;;;;19.00;70.58;98231.25;107960;1274;96000;-69
2022/07/31 02:23:29;;;;;;;4.40;3.20;;;;;;;18.93;70.70;98229.86;107872;1276;111486;-68
2022/07/31 02:25:58;;;;;;;5.80;3.40;;;;;;;18.91;70.82;98231.35;107955;1274;96128;-68
2022/07/31 02:28:28;;;;;;;6.70;3.50;;;;;;;18.88;70.65;98227.34;107920;1274;107894;-67
2022/07/31 02:30:57;;;;;;;9.70;3.50;;;;;;;18.85;70.74;98225.45;107935;1274;96169;-68
2022/07/31 02:33:25;;;;;;;4.30;3.30;;;;;;;18.83;70.99;98224.64;107974;1274;95683;-68
2022/07/31 02:35:55;;;;;;;7.00;3.80;;;;;;;18.82;70.84;98221.71;107943;1274;111062;-68
2022/07/31 02:38:26;;;;;;;5.70;3.40;;;;;;;18.79;70.96;98221.85;107966;1274;95700;-68
2022/07/31 02:41:00;;;;;;;7.80;3.70;;;;;;;18.78;71.11;98216.16;107949;1274;106870;-68
2022/07/31 02:43:31;;;;;;;5.80;4.00;;;;;;;18.79;71.13;98215.25;107935;1274;95746;-68
2022/07/31 02:45:59;;;;;;;6.20;4.00;;;;;;;18.77;71.19;98210.95;107956;1274;95671;-69
2022/07/31 02:48:28;;;;;;;4.60;3.30;;;;;;;18.75;71.05;98210.85;107745;1274;111534;-67
2022/07/31 02:50:56;;;;;;;5.60;3.80;;;;;;;18.72;70.99;98216.09;107960;1274;95692;-68
2022/07/31 02:53:24;;;;;;;7.10;4.30;;;;;;;18.69;71.26;98215.30;107941;1274;108102;-69
2022/07/31 02:55:53;;;;;;;9.40;4.60;;;;;;;18.68;71.26;98216.69;107951;1274;95681;-67
2022/07/31 02:58:21;;;;;;;8.60;4.40;;;;;;;18.69;71.56;98215.63;107756;1276;95662;-67
2022/07/31 03:00:58;;;;;;;8.20;4.10;;;;;;;18.72;71.71;98212.56;107898;1274;111314;-69
2022/07/31 03:03:26;;;;;;;9.20;4.20;;;;;;;18.76;71.61;98207.46;107941;1274;95961;-69
2022/07/31 03:05:55;;;;;;;7.60;4.50;;;;;;;18.75;71.58;98208.83;107951;1274;108825;-68
2022/07/31 03:08:22;;;;;;;8.10;4.50;;;;;;;18.78;71.72;98210.06;107922;1273;95636;-67
2022/07/31 03:10:50;;;;;;;8.30;5.10;;;;;;;18.78;71.63;98204.02;107987;1274;95658;-68
2022/07/31 03:13:21;;;;;;;8.50;5.20;;;;;;;18.82;71.70;98208.09;107948;1274;111454;-68
2022/07/31 03:15:50;;;;;;;7.60;4.70;;;;;;;18.80;71.80;98202.10;107967;1273;95672;-67
2022/07/31 03:18:20;;;;;;;7.90;5.00;;;;;;;18.87;71.84;98205.80;107926;1274;108694;-68
2022/07/31 03:20:52;;;;;;;9.30;5.60;;;;;;;18.89;71.78;98201.98;107927;1274;95714;-68
2022/07/31 03:23:21;;;;;;;9.30;5.40;;;;;;;18.92;71.87;98206.08;107961;1274;95636;-67
2022/07/31 03:25:50;;;;;;;9.60;5.70;;;;;;;18.96;71.96;98200.50;107946;1274;111294;-68
2022/07/31 03:28:19;;;;;;;8.50;5.40;;;;;;;18.99;71.87;98201.00;107940;1274;96055;-67
2022/07/31 03:30:50;;;;;;;12.60;6.80;;;;;;;19.00;71.85;98195.80;107915;1274;107817;-68
2022/07/31 03:33:23;;;;;;;11.50;6.40;;;;;;;19.02;71.85;98198.52;107787;1274;95764;-68
2022/07/31 03:35:52;;;;;;;13.90;7.20;;;;;;;19.02;71.91;98195.41;107873;1275;95778;-68
2022/07/31 03:38:20;;;;;;;15.10;7.60;;;;;;;19.01;71.81;98195.15;107922;1274;111484;-68
2022/07/31 03:41:07;;;;;;;17.10;9.00;;;;;;;18.94;71.74;98186.14;107971;1274;95695;-68
2022/07/31 03:43:37;;;;;;;16.40;9.00;;;;;;;18.91;71.86;98190.27;107947;1274;107885;-67
2022/07/31 03:46:16;;;;;;;18.00;10.30;;;;;;;18.87;71.80;98188.69;107839;1274;95762;-68
2022/07/31 03:48:46;;;;;;;15.70;8.80;;;;;;;18.87;71.80;98191.09;107761;1274;210190;-68
2022/07/31 03:51:15;;;;;;;17.70;9.40;;;;;;;18.81;71.73;98192.84;107817;1274;112657;-68
2022/07/31 03:53:44;;;;;;;17.90;9.90;;;;;;;18.73;71.79;98194.09;107957;1274;95832;-68
2022/07/31 03:56:14;;;;;;;18.00;9.70;;;;;;;18.69;71.71;98192.00;107931;1274;107866;-68
2022/07/31 03:58:42;;;;;;;18.50;9.80;;;;;;;18.66;71.77;98194.02;107914;1274;96426;-68
2022/07/31 04:01:19;;;;;;;19.10;10.50;;;;;;;18.63;71.88;98195.94;107940;1274;95702;-68
2022/07/31 04:03:47;;;;;;;19.10;10.90;;;;;;;18.62;72.00;98197.83;107916;1274;111117;-67
2022/07/31 04:06:15;;;;;;;18.60;10.90;;;;;;;18.65;72.17;98197.48;107948;1274;95623;-68
2022/07/31 04:08:43;;;;;;;21.60;11.10;;;;;;;18.67;72.06;98199.39;107936;1274;106934;-68
2022/07/31 04:11:11;;;;;;;20.00;11.40;;;;;;;18.69;71.99;98197.15;107930;1274;95718;-68
2022/07/31 04:13:39;;;;;;;21.10;10.80;;;;;;;18.68;71.88;98193.20;107936;1274;95666;-68
2022/07/31 04:16:06;;;;;;;19.70;10.90;;;;;;;18.67;71.91;98191.93;107932;1274;110130;-68
2022/07/31 04:18:34;;;;;;;20.30;10.90;;;;;;;18.65;71.92;98197.53;107957;1274;95853;-68
2022/07/31 04:21:02;;;;;;;19.90;11.10;;;;;;;18.66;72.00;98204.23;107801;1275;107715;-68
2022/07/31 04:23:30;;;;;;;20.60;11.60;;;;;;;18.67;72.13;98203.87;107910;1274;96388;-68
2022/07/31 04:25:59;;;;;;;20.20;11.20;;;;;;;18.70;72.05;98202.13;107937;1274;95721;-67
2022/07/31 04:28:27;;;;;;;18.50;10.10;;;;;;;18.71;72.24;98198.75;107938;1274;111525;-68
2022/07/31 04:30:54;;;;;;;26.20;12.90;;;;;;;18.68;72.02;98192.98;107931;1274;95809;-69
2022/07/31 04:33:22;;;;;;;20.20;11.00;;;;;;;18.65;72.06;98192.48;107924;1274;107827;-69
2022/07/31 04:35:51;;;;;;;23.10;12.40;;;;;;;18.65;71.83;98191.45;107925;1274;96993;-67
2022/07/31 04:38:20;;;;;;;19.60;11.20;;;;;;;18.64;71.95;98192.42;107960;1272;95638;-67
2022/07/31 04:40:48;;;;;;;20.50;11.70;;;;;;;18.61;72.15;98192.35;107888;1274;111156;-68
2022/07/31 04:43:16;;;;;;;20.30;11.80;;;;;;;18.65;72.14;98193.05;107879;1274;96438;-67
2022/07/31 04:45:44;;;;;;;20.90;12.00;;;;;;;18.69;72.22;98194.86;107933;1274;108036;-67
2022/07/31 04:48:12;;;;;;;21.40;12.00;;;;;;;18.71;72.21;98189.05;107942;1274;96170;-67
2022/07/31 04:50:40;;;;;;;21.60;11.00;;;;;;;18.72;72.13;98193.34;107915;1274;95634;-67
2022/07/31 04:53:07;;;;;;;19.90;10.70;;;;;;;18.72;72.12;98189.39;107935;1274;111647;-67
2022/07/31 04:55:35;;;;;;;20.40;11.10;;;;;;;18.75;72.13;98189.59;107952;1273;95769;-66
2022/07/31 04:58:03;;;;;;;19.90;10.90;;;;;;;18.77;72.05;98191.77;107899;1274;107852;-68
2022/07/31 05:00:31;;;;;;;20.80;10.60;;;;;;;18.76;72.18;98194.88;107929;1274;95813;-69
2022/07/31 05:02:59;;;;;;;19.80;10.20;;;;;;;18.75;72.26;98192.47;107974;1273;96020;-68
2022/07/31 05:05:26;;;;;;;19.80;11.20;;;;;;;18.81;72.10;98190.74;107919;1274;111438;-69
2022/07/31 05:07:54;;;;;;;21.10;9.70;;;;;;;18.83;72.20;98185.94;107907;1274;95816;-67
2022/07/31 05:13:08;;;;;;;22.80;11.70;;;;;;;18.84;72.18;98194.79;107916;1274;96043;-68
2022/07/31 05:15:36;;;;;;;22.10;11.10;;;;;;;18.81;72.10;98201.11;107901;1274;95701;-71
2022/07/31 05:18:06;;;;;;;23.40;12.50;;;;;;;18.81;72.11;98207.62;107805;1276;111381;-73
2022/07/31 05:20:34;;;;;;;21.10;12.20;;;;;;;18.81;72.06;98211.17;107833;1276;95768;-71
2022/07/31 05:23:02;;;;;;;21.20;11.70;;;;;;;18.81;72.16;98209.77;107740;1276;107823;-68
2022/07/31 05:25:33;;;;;;;23.50;12.30;;;;;;;18.83;72.29;98210.80;107880;1275;95643;-71
2022/07/31 05:28:01;;;;;;;20.00;10.80;;;;;;;18.84;72.26;98202.00;107831;1275;95624;-71
2022/07/31 05:30:29;;;;;;;19.80;10.20;;;;;;;18.86;72.22;98201.27;107894;1275;111509;-73
2022/07/31 05:32:57;;;;;;;20.30;11.10;;;;;;;18.87;72.24;98207.02;107902;1275;95712;-70
2022/07/31 05:35:25;;;;;;;24.30;12.40;;;;;;;18.91;72.29;98205.90;107796;1276;107776;-69
2022/07/31 05:37:53;;;;;;;19.90;10.80;;;;;;;18.93;72.32;98208.29;107886;1276;95736;-70
2022/07/31 05:40:21;;;;;;;19.90;11.40;;;;;;;18.96;72.40;98213.11;107767;1277;95574;-69
2022/07/31 05:42:48;;;;;;;19.30;9.50;;;;;;;18.97;72.30;98212.09;107821;1275;111375;-68
2022/07/31 05:45:16;;;;;;;18.50;9.20;;;;;;;19.00;72.17;98210.20;107810;1276;96111;-69
2022/07/31 05:47:44;;;;;;;18.90;8.90;;;;;;;19.02;72.27;98208.30;107734;1276;107784;-65
2022/07/31 05:50:13;;;;;;;17.30;8.80;;;;;;;19.02;72.11;98208.89;107805;1276;95618;-68
2022/07/31 05:52:41;;;;;;;18.60;9.10;;;;;;;19.02;72.24;98214.94;107835;1276;95640;-72
2022/07/31 05:55:09;;;;;;;14.00;7.10;;;;;;;19.03;72.23;98220.43;107851;1276;111333;-73
2022/07/31 05:57:37;;;;;;;15.30;6.90;;;;;;;19.01;72.14;98219.52;107821;1276;95703;-73
2022/07/31 06:00:05;;;;;;;14.60;6.30;;;;;;;19.00;72.22;98225.44;107900;1275;108157;-76
2022/07/31 06:02:35;;;;;;;12.60;6.20;;;;;;;19.00;72.22;98211.96;107800;1276;95944;-72
2022/07/31 06:05:04;;;;;;;13.00;6.10;;;;;;;19.01;72.16;98222.10;107915;1275;95644;-78
2022/07/31 06:07:31;;;;;;;12.90;6.40;;;;;;;19.04;72.21;98219.48;107738;1276;111106;-75
2022/07/31 06:10:01;;;;;;;14.40;6.00;;;;;;;19.06;72.30;98217.02;107910;1276;95751;-71
2022/07/31 06:12:28;;;;;;;12.00;6.30;;;;;;;19.05;72.25;98213.33;107816;1276;107665;-71
2022/07/31 06:14:57;;;;;;;11.40;5.40;;;;;;;19.07;72.12;98215.70;107956;1274;96023;-77
2022/07/31 06:17:24;;;;;;;11.80;6.00;;;;;;;19.06;71.99;98222.61;107916;1274;95654;-73
2022/07/31 06:20:11;;;;;;;10.70;5.90;;;;;;;19.05;72.13;98227.25;107922;1274;111345;-73
2022/07/31 06:22:42;;;;;;;11.60;5.30;;;;;;;19.07;72.19;98226.73;107942;1274;95673;-74
2022/07/31 06:25:11;;;;;;;10.90;5.40;;;;;;;19.10;72.22;98224.34;107888;1274;107752;-74
2022/07/31 06:27:41;;;;;;;6.70;4.40;;;;;;;19.11;72.18;98228.63;107885;1274;96082;-74
2022/07/31 06:30:14;;;;;;;7.30;4.10;;;;;;;19.12;72.03;98227.10;107979;1274;95653;-74
2022/07/31 06:32:42;;;;;;;9.60;4.60;;;;;;;19.14;72.12;98226.23;107957;1274;111387;-73
2022/07/31 06:35:10;;;;;;;10.30;3.80;;;;;;;19.15;72.04;98228.27;107896;1274;95762;-74
2022/07/31 06:37:37;;;;;;;7.10;3.90;;;;;;;19.14;72.10;98225.72;107872;1274;107727;-74
2022/07/31 06:40:07;;;;;;;7.60;3.50;;;;;;;19.17;71.92;98234.15;107932;1274;95652;-75
2022/07/31 06:42:36;;;;;;;7.30;3.40;;;;;;;19.18;72.18;98230.98;107943;1274;96035;-74
2022/07/31 06:45:04;;;;;;;4.00;2.90;;;;;;;19.19;72.05;98233.23;107892;1274;111392;-77
2022/07/31 06:47:32;;;;;;;5.20;2.90;;;;;;;19.19;71.95;98234.78;107890;1274;96070;-76
2022/07/31 06:50:00;;;;;;;6.00;3.20;;;;;;;19.21;71.98;98234.05;107881;1274;107704;-77
2022/07/31 06:52:28;;;;;;;5.20;3.40;;;;;;;19.24;71.97;98235.83;107737;1276;95674;-72
2022/07/31 06:54:56;;;;;;;5.70;3.10;;;;;;;19.28;71.99;98237.58;107964;1274;95693;-81
2022/07/31 06:57:24;;;;;;;5.30;3.10;;;;;;;19.31;72.03;98240.07;107926;1274;112093;-78
2022/07/31 06:59:52;;;;;;;5.90;3.00;;;;;;;19.31;72.00;98238.20;107903;1276;95716;-76
2022/07/31 07:02:19;;;;;;;13.30;5.30;;;;;;;19.33;71.97;98240.14;107924;1274;107426;-77
2022/07/31 07:04:47;;;;;;;6.70;3.40;;;;;;;19.37;72.01;98241.67;107937;1274;95654;-79
2022/07/31 07:07:36;;;;;;;6.80;3.50;;;;;;;19.37;71.95;98237.66;107919;1275;95664;-72
2022/07/31 07:10:04;;;;;;;7.10;3.50;;;;;;;19.43;71.92;98235.20;107964;1274;111399;-74
2022/07/31 07:12:32;;;;;;;7.30;3.80;;;;;;;19.46;71.96;98232.82;107918;1274;95636;-77
2022/07/31 07:15:01;;;;;;;7.60;4.00;;;;;;;19.46;71.84;98236.60;107955;1274;108308;-75
2022/07/31 07:17:29;;;;;;;6.70;3.80;;;;;;;19.45;71.95;98232.60;107939;1274;95719;-76
2022/07/31 07:19:57;;;;;;;7.60;3.80;;;;;;;19.49;71.89;98234.23;107936;1274;95694;-76
2022/07/31 07:22:25;;;;;;;8.20;4.00;;;;;;;19.50;71.83;98237.86;107827;1274;111484;-76
2022/07/31 07:24:59;;;;;;;;;;;;;;;19.45;71.80;98229.65;107984;1274;95718;-74
2022/07/31 07:27:27;;;;;;;7.10;3.80;;;;;;;19.43;71.82;98230.80;107961;1274;107742;-74
2022/07/31 07:29:56;;;;;;;7.40;4.00;;;;;;;19.43;71.74;98231.79;107947;1274;95673;-74
2022/07/31 07:32:24;;;;;;;8.70;4.20;;;;;;;19.38;71.68;98229.79;107915;1276;95622;-74
2022/07/31 07:34:51;;;;;;;5.60;3.60;;;;;;;19.40;71.78;98231.65;107954;1274;109673;-75
2022/07/31 07:37:27;;;;;;;6.30;4.00;;;;;;;19.44;71.82;98234.36;107974;1274;95779;-74
2022/07/31 07:39:55;;;;;;;7.60;3.50;;;;;;;19.51;71.78;98243.40;107927;1274;108380;-74
2022/07/31 07:42:30;;;;;;;5.50;3.30;;;;;;;19.52;71.81;98237.99;107920;1274;95732;-74
2022/07/31 07:44:58;;;;;;;4.80;3.20;;;;;;;19.58;71.88;98243.41;107820;1274;95734;-75
2022/07/31 07:47:27;;;;;;;5.30;3.30;;;;;;;19.60;71.86;98240.40;107927;1274;111454;-72
2022/07/31 07:50:15;;;;;;;4.50;3.10;;;;;;;19.63;71.67;98242.76;107925;1274;95764;-75
2022/07/31 07:52:43;;;;;;;4.30;2.70;;;;;;;19.64;71.69;98242.85;107910;1274;107664;-75
2022/07/31 07:55:11;;;;;;;5.80;2.90;;;;;;;19.67;71.87;98241.85;107923;1274;95680;-75
2022/07/31 07:57:43;;;;;;;3.40;2.60;;;;;;;19.67;71.65;98244.42;107899;1274;96124;-72
2022/07/31 08:00:12;;;;;;;4.90;3.30;;;;;;;19.69;71.72;98249.40;107892;1274;111357;-74
2022/07/31 08:02:44;;;;;;;4.60;3.20;;;;;;;19.71;71.65;98249.16;107920;1274;95938;-72
2022/07/31 08:05:32;;;;;;;6.90;3.30;;;;;;;19.75;71.55;98245.10;107935;1274;106671;-77
2022/07/31 08:07:59;;;;;;;5.10;3.00;;;;;;;19.76;71.58;98245.02;107919;1275;96822;-85
2022/07/31 08:10:27;;;;;;;3.60;2.90;;;;;;;19.77;71.64;98246.60;107898;1274;96091;-84
2022/07/31 08:12:56;;;;;;;4.50;2.80;;;;;;;19.80;71.67;98249.66;107915;1274;111410;-78
2022/07/31 08:15:24;;;;;;;3.70;2.60;;;;;;;19.83;71.66;98252.43;107952;1274;96039;-79
2022/07/31 08:17:52;;;;;;;6.20;2.80;;;;;;;19.85;71.56;98255.77;107697;1276;108196;-74
2022/07/31 08:20:20;;;;;;;4.70;2.70;;;;;;;19.85;71.57;98253.61;107904;1274;95793;-76
2022/07/31 08:22:48;;;;;;;7.70;3.00;;;;;;;19.85;71.52;98254.86;107937;1274;95691;-77
2022/07/31 08:25:15;;;;;;;6.50;2.70;;;;;;;19.88;71.53;98257.92;107915;1274;111456;-78
2022/07/31 08:27:43;;;;;;;4.70;2.60;;;;;;;19.87;71.37;98259.21;107924;1274;95664;-80
2022/07/31 08:30:14;;;;;;;4.30;2.50;;;;;;;19.87;71.46;98258.04;107887;1274;107788;-77
2022/07/31 08:32:42;;;;;;;6.90;2.90;;;;;;;19.86;71.44;98260.06;107905;1274;95651;-78
2022/07/31 08:35:10;;;;;;;4.00;2.90;;;;;;;19.88;71.50;98261.27;107845;1274;95981;-78
2022/07/31 08:37:41;;;;;;;5.90;3.10;;;;;;;19.96;71.50;98259.61;107901;1274;111548;-77
2022/07/31 08:40:29;;;;;;;5.10;2.70;;;;;;;20.08;71.51;98257.07;107868;1274;95819;-77
2022/07/31 08:42:59;;;;;;;6.60;2.60;;;;;;;20.11;71.47;98250.33;107902;1274;106828;-77
2022/07/31 08:45:28;;;;;;;5.40;2.80;;;;;;;20.20;71.47;98251.91;107865;1274;96096;-78
2022/07/31 08:47:59;;;;;;;5.30;2.90;;;;;;;20.32;71.50;98254.09;107907;1274;95866;-77
2022/07/31 08:50:28;;;;;;;6.80;3.40;;;;;;;20.36;71.39;98255.84;107848;1274;112642;-78
2022/07/31 08:52:58;;;;;;;5.20;3.50;;;;;;;20.39;71.36;98254.80;107697;1274;97382;-79
2022/07/31 08:55:28;;;;;;;5.70;3.10;;;;;;;20.37;71.29;98256.09;107854;1274;107732;-79
2022/07/31 08:58:17;;;;;;;6.60;3.80;;;;;;;20.32;71.21;98261.27;107736;1274;96957;-75
2022/07/31 09:00:45;;;;;;;7.00;4.10;;;;;;;20.28;71.00;98262.69;107913;1274;95987;-74
2022/07/31 09:03:13;;;;;;;7.00;3.60;;;;;;;20.22;71.17;98261.44;107931;1274;111373;-75
2022/07/31 09:05:42;;;;;;;14.00;4.00;;;;;;;20.17;71.07;98260.60;107938;1274;95814;-74
2022/07/31 09:08:10;;;;;;;6.70;3.90;;;;;;;20.09;70.97;98259.38;107906;1274;106722;-73
2022/07/31 09:10:41;;;;;;;5.20;3.80;;;;;;;20.04;71.10;98264.13;107867;1275;96032;-71
2022/07/31 09:13:17;;;;;;;5.10;3.70;;;;;;;20.01;71.14;98260.79;107952;1274;95618;-72
2022/07/31 09:15:45;;;;;;;6.10;3.80;;;;;;;20.00;71.17;98257.15;107893;1274;111420;-73
2022/07/31 09:18:20;;;;;;;6.10;3.60;;;;;;;20.03;71.25;98255.53;107928;1274;95746;-69
2022/07/31 09:20:57;;;;;;;5.80;3.80;;;;;;;20.12;71.05;98258.35;107717;1274;107753;-75
2022/07/31 09:23:26;;;;;;;5.60;3.70;;;;;;;20.25;71.03;98255.61;107850;1274;95997;-76
2022/07/31 09:26:00;;;;;;;5.70;4.20;;;;;;;20.45;70.95;98249.91;107889;1274;95667;-76
2022/07/31 09:28:38;;;;;;;5.20;3.90;;;;;;;20.57;71.08;98249.33;107888;1274;111272;-76
2022/07/31 09:31:07;;;;;;;7.50;3.70;;;;;;;20.69;70.94;98253.70;107755;1274;95837;-74
2022/07/31 09:33:37;;;;;;;6.50;4.10;;;;;;;20.77;71.13;98262.86;107879;1272;107705;-75
2022/07/31 09:36:10;;;;;;;7.60;4.30;;;;;;;20.73;70.89;98255.49;107826;1274;96949;-77
2022/07/31 09:38:40;;;;;;;9.00;4.20;;;;;;;20.69;70.80;98264.55;108002;1274;95733;-75
2022/07/31 09:41:12;;;;;;;4.40;3.40;;;;;;;20.61;70.77;98271.77;107896;1274;111418;-79
2022/07/31 09:44:03;;;;;;;4.30;3.20;;;;;;;20.46;70.71;98281.96;107844;1274;95870;-69
2022/07/31 09:46:40;;;;;;;8.90;3.50;;;;;;;20.25;70.34;98287.10;107770;1274;108237;-74
2022/07/31 09:49:08;;;;;;;6.60;3.70;;;;;;;20.05;70.49;98282.01;107908;1274;95651;-79
2022/07/31 09:51:38;;;;;;;6.20;3.70;;;;;;;20.01;70.72;98282.26;107896;1274;95672;-74
2022/07/31 09:54:07;;;;;;;7.50;3.90;;;;;;;19.99;70.59;98283.11;107682;1276;111560;-74
2022/07/31 09:56:35;;;;;;;8.60;4.40;;;;;;;20.02;70.62;98278.73;107883;1274;95826;-74
2022/07/31 09:59:03;;;;;;;7.40;3.80;;;;;;;20.16;70.59;98283.40;107800;1274;107488;-80
2022/07/31 10:01:35;;;;;;;5.90;3.70;;;;;;;20.28;70.62;98287.70;107660;1275;95787;-76
2022/07/31 10:04:05;;;;;;;7.00;3.30;;;;;;;20.31;70.40;98288.77;107870;1274;95887;-80
2022/07/31 10:06:34;;;;;;;12.20;5.00;;;;;;;20.28;70.52;98289.66;107909;1274;110959;-77
2022/07/31 10:09:05;;;;;;;10.20;4.40;;;;;;;20.30;70.42;98291.80;107933;1274;95740;-82
2022/07/31 10:11:33;;;;;;;9.90;4.80;;;;;;;20.27;70.39;98297.23;107786;1276;107560;-69
2022/07/31 10:14:02;;;;;;;7.10;4.40;;;;;;;20.25;70.39;98296.69;107858;1274;95838;-74
2022/07/31 10:16:35;;;;;;;8.40;4.50;;;;;;;20.22;70.21;98298.98;107888;1274;95723;-79
2022/07/31 10:19:10;;;;;;;9.10;5.60;;;;;;;20.15;70.25;98300.96;107739;1274;111401;-79
2022/07/31 10:21:46;;;;;;;8.10;5.40;;;;;;;20.06;70.11;98297.27;107876;1275;95868;-76
2022/07/31 10:24:17;;;;;;;7.80;5.60;;;;;;;19.98;70.18;98300.45;107808;1276;107610;-69
2022/07/31 10:26:48;;;;;;;11.90;6.20;;;;;;;19.88;70.09;98297.66;107858;1274;96612;-73
2022/07/31 10:29:39;;;;;;;10.90;5.30;;;;;;;19.82;70.13;98303.36;107909;1274;95684;-75
2022/07/31 10:32:08;;;;;;;8.60;5.70;;;;;;;19.76;70.02;98307.29;107829;1276;111402;-81
2022/07/31 10:34:36;;;;;;;9.40;5.30;;;;;;;19.68;70.14;98307.51;107882;1274;95811;-75
2022/07/31 10:37:12;;;;;;;6.30;4.80;;;;;;;19.67;70.09;98308.54;107696;1274;107783;-74
2022/07/31 10:39:57;;;;;;;6.20;4.40;;;;;;;19.65;70.03;98311.67;107751;1275;96038;-75
2022/07/31 10:42:34;;;;;;;6.70;4.10;;;;;;;19.59;69.99;98316.04;107847;1274;95855;-76
2022/07/31 10:45:05;;;;;;;7.60;4.30;;;;;;;19.59;70.02;98320.94;107855;1275;111428;-74
2022/07/31 10:47:33;;;;;;;7.00;4.10;;;;;;;19.60;69.92;98321.56;107752;1274;95957;-74
2022/07/31 10:50:03;;;;;;;8.00;4.90;;;;;;;19.59;69.87;98320.27;107840;1274;108260;-77
2022/07/31 10:52:34;;;;;;;7.00;4.40;;;;;;;19.57;69.91;98312.91;107695;1276;95879;-75
2022/07/31 10:55:29;;;;;;;10.20;4.90;;;;;;;19.60;69.83;98310.33;107788;1276;97330;-78
2022/07/31 10:58:13;;;;;;;10.10;4.80;;;;;;;19.72;69.96;98313.04;107782;1274;111397;-77
2022/07/31 11:00:42;;;;;;;9.50;4.40;;;;;;;19.85;69.85;98309.34;107756;1276;96049;-77
2022/07/31 11:03:18;;;;;;;6.90;4.40;;;;;;;19.99;69.81;98305.48;107773;1274;107732;-75
2022/07/31 11:05:58;;;;;;;4.50;3.50;;;;;;;20.16;69.67;98304.66;107773;1275;95865;-79
2022/07/31 11:08:45;;;;;;;7.60;4.20;;;;;;;20.30;69.77;98309.82;107850;1274;96057;-74
2022/07/31 11:11:14;;;;;;;8.00;3.70;;;;;;;20.38;69.82;98305.12;107700;1274;111111;-73
2022/07/31 11:13:46;;;;;;;7.10;3.80;;;;;;;20.49;69.74;98320.01;107635;1276;95999;-73
2022/07/31 11:16:14;;;;;;;6.60;3.90;;;;;;;20.49;69.53;98320.84;107679;1276;107900;-74
2022/07/31 11:18:44;;;;;;;5.50;3.80;;;;;;;20.48;69.42;98327.17;107790;1275;96722;-75
2022/07/31 11:21:13;;;;;;;5.60;3.30;;;;;;;20.46;69.43;98329.66;107807;1274;96142;-74
2022/07/31 11:24:12;;;;;;;5.70;3.10;;;;;;;20.43;69.33;98327.84;107683;1274;112794;-74
2022/07/31 11:26:51;;;;;;;5.10;3.40;;;;;;;20.41;69.38;98327.63;107805;1275;95690;-74
2022/07/31 11:29:28;;;;;;;5.10;3.20;;;;;;;20.37;69.35;98327.58;107801;1275;107893;-73
2022/07/31 11:32:17;;;;;;;5.50;3.60;;;;;;;20.22;69.14;98331.10;107692;1276;96144;-71
2022/07/31 11:34:56;;;;;;;6.00;3.90;;;;;;;20.18;69.26;98323.83;107854;1274;96807;-74
2022/07/31 11:37:27;;;;;;;6.00;3.60;;;;;;;20.25;69.19;98328.19;107835;1274;111409;-70
2022/07/31 11:40:15;;;;;;;6.50;3.60;;;;;;;20.36;69.28;98326.96;107873;1274;95881;-74